Time;durP1;ratioP1;P1;durP2;ratioP2;P2;SDS_P1;SDS_P2;PMS_P1;PMS_P2;Temp;Humidity;BMP_temperature;BMP_pressure;BME280_temperature;BME280_humidity;BME280_pressure;Samples;Min_cycle;Max_cycle;Signal;HPM_P1;HPM_P2
2022/12/29 00:01:11;;;;;;;3.13;1.10;;;;;;;9.70;100.00;99519.09;5204841;28;20032;-71
2022/12/29 00:03:41;;;;;;;1.98;0.88;;;;;;;9.68;100.00;99506.13;5213060;28;20090;-71
2022/12/29 00:06:11;;;;;;;3.90;2.00;;;;;;;9.82;100.00;99506.28;5209417;28;20033;-72
2022/12/29 00:08:42;;;;;;;4.28;1.45;;;;;;;9.75;100.00;99506.66;5212852;28;20059;-71
2022/12/29 00:11:14;;;;;;;3.22;1.10;;;;;;;9.75;100.00;99509.28;5209653;28;20023;-71
2022/12/29 00:16:35;;;;;;;3.60;1.33;;;;;;;9.71;100.00;99511.22;5207555;28;20086;-72
2022/12/29 00:19:06;;;;;;;2.53;1.10;;;;;;;9.81;100.00;99502.00;5210590;28;20116;-71
2022/12/29 00:35:52;;;;;;;2.13;0.90;;;;;;;9.86;100.00;99479.13;5229073;28;20074;-75
2022/12/29 00:44:09;;;;;;;2.58;1.20;;;;;;;9.94;100.00;99481.34;5234708;28;20555;-76
2022/12/29 00:46:42;;;;;;;5.13;1.10;;;;;;;9.93;100.00;99479.66;5224941;28;20119;-73
2022/12/29 00:49:31;;;;;;;3.08;0.98;;;;;;;9.96;100.00;99472.53;5195562;28;20029;-73
2022/12/29 00:52:07;;;;;;;2.67;0.90;;;;;;;9.96;100.00;99472.53;5242478;28;20024;-73
2022/12/29 00:54:40;;;;;;;2.70;1.10;;;;;;;9.94;100.00;99468.31;5231359;28;20038;-74
2022/12/29 00:57:11;;;;;;;2.17;1.00;;;;;;;10.03;100.00;99471.31;5237014;28;20028;-73
2022/12/29 00:59:42;;;;;;;4.93;1.27;;;;;;;10.01;100.00;99478.38;5227831;28;20440;-74
2022/12/29 01:02:12;;;;;;;1.77;1.10;;;;;;;9.98;100.00;99483.75;5216334;28;20082;-74
2022/12/29 01:04:43;;;;;;;4.30;0.90;;;;;;;10.03;100.00;99481.75;5242646;28;20058;-74
2022/12/29 01:07:13;;;;;;;2.75;1.00;;;;;;;9.98;100.00;99485.53;5233590;28;20028;-72
2022/12/29 01:12:44;;;;;;;4.18;1.10;;;;;;;9.99;100.00;99490.66;5242366;28;20136;-75
2022/12/29 01:15:14;;;;;;;3.15;1.10;;;;;;;10.08;100.00;99484.16;5229067;28;20032;-74
2022/12/29 01:17:45;;;;;;;2.65;1.02;;;;;;;10.00;100.00;99475.84;5232507;28;20173;-74
2022/12/29 01:20:15;;;;;;;2.58;1.20;;;;;;;9.99;100.00;99476.75;5207802;28;20398;-74
2022/12/29 01:22:47;;;;;;;2.60;1.23;;;;;;;9.93;100.00;99474.44;5210080;28;20029;-74
2022/12/29 01:25:17;;;;;;;3.60;1.20;;;;;;;9.98;100.00;99472.47;5225873;28;20033;-76
2022/12/29 01:27:47;;;;;;;2.53;1.13;;;;;;;9.97;100.00;99465.56;5239048;28;20433;-76
2022/12/29 01:30:17;;;;;;;1.98;1.00;;;;;;;9.96;100.00;99464.69;5228360;28;20333;-74
2022/12/29 01:32:48;;;;;;;2.60;1.20;;;;;;;9.93;100.00;99456.19;5234873;28;20434;-74
2022/12/29 01:35:18;;;;;;;3.20;1.10;;;;;;;10.03;100.00;99462.66;5240330;28;20024;-74
2022/12/29 01:37:48;;;;;;;2.65;1.05;;;;;;;9.99;100.00;99455.88;5241338;28;20354;-74
2022/12/29 01:40:19;;;;;;;2.47;1.08;;;;;;;9.89;100.00;99452.03;5231868;28;20025;-74
2022/12/29 01:42:49;;;;;;;2.90;0.90;;;;;;;9.94;100.00;99455.25;5231805;28;20035;-74
2022/12/29 01:45:20;;;;;;;1.33;0.90;;;;;;;10.03;100.00;99450.44;5227157;28;20025;-74
2022/12/29 01:47:55;;;;;;;3.17;1.30;;;;;;;9.94;100.00;99452.63;5240051;28;20032;-74
2022/12/29 01:50:30;;;;;;;3.38;1.23;;;;;;;9.97;100.00;99444.69;5235593;28;20035;-74
2022/12/29 01:53:08;;;;;;;3.25;1.20;;;;;;;10.07;100.00;99438.09;5222941;28;20025;-75
2022/12/29 01:56:04;;;;;;;2.75;1.20;;;;;;;10.16;100.00;99445.47;5241441;28;20020;-75
2022/12/29 01:58:39;;;;;;;1.80;1.00;;;;;;;10.13;100.00;99435.19;5215333;28;20044;-75
2022/12/29 02:01:10;;;;;;;2.30;1.07;;;;;;;10.08;100.00;99424.97;5222744;28;20024;-74
2022/12/29 02:03:41;;;;;;;3.25;1.27;;;;;;;10.03;100.00;99437.38;5223075;28;20038;-75
2022/12/29 02:06:17;;;;;;;1.90;1.08;;;;;;;10.12;100.00;99423.03;5238465;28;20497;-76
2022/12/29 02:08:51;;;;;;;2.35;1.30;;;;;;;9.98;100.00;99415.06;5239092;28;20111;-76
2022/12/29 02:11:25;;;;;;;3.15;1.20;;;;;;;9.94;100.00;99421.31;5226532;28;20024;-74
2022/12/29 02:13:56;;;;;;;3.78;1.30;;;;;;;10.00;100.00;99413.19;5232363;28;20037;-72
2022/12/29 02:16:35;;;;;;;2.90;1.30;;;;;;;9.88;100.00;99408.59;5215538;28;20078;-74
2022/12/29 02:19:43;;;;;;;2.15;1.20;;;;;;;9.77;100.00;99400.47;5233620;28;20031;-74
2022/12/29 02:22:38;;;;;;;2.42;1.17;;;;;;;9.70;100.00;99394.75;5233410;28;20025;-76
2022/12/29 02:25:32;;;;;;;2.35;1.13;;;;;;;9.78;100.00;99391.72;5240435;28;20020;-74
2022/12/29 02:28:18;;;;;;;3.05;1.15;;;;;;;9.69;100.00;99381.78;5228169;28;20112;-74
2022/12/29 02:31:01;;;;;;;3.10;1.42;;;;;;;9.68;100.00;99385.31;5225752;28;20405;-76
2022/12/29 02:34:10;;;;;;;2.80;1.27;;;;;;;9.74;100.00;99384.97;5230930;28;20028;-74
2022/12/29 02:37:17;;;;;;;2.50;1.10;;;;;;;9.75;100.00;99376.22;5224647;28;20119;-74
2022/12/29 02:40:04;;;;;;;4.13;1.63;;;;;;;9.79;100.00;99369.97;5225429;28;20032;-74
2022/12/29 02:42:47;;;;;;;2.80;0.85;;;;;;;9.74;100.00;99362.34;5215232;28;20478;-73
2022/12/29 02:45:24;;;;;;;2.30;1.08;;;;;;;9.78;100.00;99360.41;5228394;28;20111;-75
2022/12/29 02:48:17;;;;;;;2.78;1.30;;;;;;;9.84;100.00;99370.56;5239080;28;20029;-74
2022/12/29 02:50:57;;;;;;;4.03;1.20;;;;;;;9.76;100.00;99362.25;5230130;28;20045;-74
2022/12/29 02:56:19;;;;;;;2.63;1.38;;;;;;;9.68;100.00;99377.47;5233285;28;20365;-76
2022/12/29 02:58:49;;;;;;;3.55;1.00;;;;;;;9.75;100.00;99373.63;5233475;28;20032;-73
2022/12/29 03:01:34;;;;;;;2.95;1.25;;;;;;;9.78;100.00;99374.31;5231354;28;20032;-74
2022/12/29 03:04:16;;;;;;;2.78;0.95;;;;;;;9.81;100.00;99368.09;5234526;28;20489;-74
2022/12/29 03:07:00;;;;;;;2.95;1.58;;;;;;;9.94;100.00;99375.22;5233895;28;20033;-75
2022/12/29 03:09:41;;;;;;;2.97;1.13;;;;;;;9.97;100.00;99369.81;5236928;28;20020;-75
2022/12/29 03:18:29;;;;;;;2.42;1.10;;;;;;;10.13;100.00;99359.47;5240073;28;20043;-76
2022/12/29 03:21:08;;;;;;;1.50;0.70;;;;;;;10.21;100.00;99358.16;5234354;28;20039;-75
2022/12/29 03:23:42;;;;;;;2.95;0.93;;;;;;;10.28;100.00;99366.47;5240346;28;20031;-74
2022/12/29 03:26:15;;;;;;;2.20;0.98;;;;;;;10.41;100.00;99357.91;5232467;28;20020;-75
2022/12/29 03:28:53;;;;;;;0.93;0.70;;;;;;;10.51;100.00;99358.25;5227608;28;20059;-74
2022/12/29 03:31:24;;;;;;;2.03;0.90;;;;;;;10.60;100.00;99340.31;5228046;28;20480;-75
2022/12/29 03:33:56;;;;;;;4.20;1.10;;;;;;;10.57;100.00;99343.09;5244085;28;20055;-74
2022/12/29 03:36:33;;;;;;;2.60;0.70;;;;;;;10.57;100.00;99345.69;5232406;28;20031;-75
2022/12/29 03:39:13;;;;;;;2.85;0.90;;;;;;;10.63;100.00;99339.25;5234985;28;20047;-76
2022/12/29 03:41:45;;;;;;;1.70;0.82;;;;;;;10.78;100.00;99335.81;5228908;28;20029;-73
2022/12/29 03:44:15;;;;;;;2.00;1.00;;;;;;;10.73;100.00;99343.94;5234384;28;20116;-75
2022/12/29 03:46:46;;;;;;;3.78;0.90;;;;;;;10.66;100.00;99331.28;5234969;28;20498;-74
2022/12/29 03:49:16;;;;;;;2.33;1.00;;;;;;;10.60;100.00;99315.94;5240275;28;20028;-74
2022/12/29 03:51:46;;;;;;;5.22;0.95;;;;;;;10.70;100.00;99323.16;5242923;28;20029;-76
2022/12/29 03:54:16;;;;;;;2.60;1.00;;;;;;;10.68;100.00;99313.75;5243114;28;20153;-76
2022/12/29 03:56:47;;;;;;;3.05;1.55;;;;;;;10.70;100.00;99317.94;5234122;28;20032;-75
2022/12/29 03:59:17;;;;;;;2.28;1.10;;;;;;;10.62;100.00;99312.31;5232782;28;20025;-74
2022/12/29 04:01:47;;;;;;;2.97;0.90;;;;;;;10.76;100.00;99306.31;5234295;28;20112;-75
2022/12/29 04:04:17;;;;;;;2.42;0.90;;;;;;;10.69;100.00;99305.81;5241860;28;20105;-75
2022/12/29 04:06:48;;;;;;;3.17;1.02;;;;;;;10.78;100.00;99307.06;5232747;28;20546;-74
2022/12/29 04:09:18;;;;;;;6.43;1.17;;;;;;;10.79;100.00;99312.22;5236791;28;20035;-74
2022/12/29 04:11:48;;;;;;;2.42;0.95;;;;;;;10.84;100.00;99298.91;5232325;28;20040;-74
2022/12/29 04:14:19;;;;;;;1.38;0.60;;;;;;;10.78;100.00;99310.53;5233821;28;20036;-77
2022/12/29 04:16:49;;;;;;;2.08;1.00;;;;;;;10.67;100.00;99312.06;5233185;28;20036;-74
2022/12/29 04:19:19;;;;;;;1.98;1.00;;;;;;;10.67;100.00;99325.13;5243292;28;20048;-74
2022/12/29 04:21:50;;;;;;;1.17;0.80;;;;;;;10.63;100.00;99320.97;5242963;28;20367;-74
2022/12/29 04:24:20;;;;;;;1.13;0.73;;;;;;;10.73;100.00;99298.66;5239924;28;20125;-74
2022/12/29 04:26:50;;;;;;;2.83;0.82;;;;;;;10.67;100.00;99301.63;5239717;28;20587;-74
2022/12/29 04:29:21;;;;;;;1.50;0.70;;;;;;;10.53;100.00;99299.75;5232792;28;20032;-74
2022/12/29 04:31:51;;;;;;;3.90;1.02;;;;;;;10.56;100.00;99291.78;5229030;28;20075;-75
2022/12/29 04:34:21;;;;;;;1.98;0.80;;;;;;;10.56;100.00;99290.91;5232041;28;20032;-77
2022/12/29 04:36:52;;;;;;;6.45;1.00;;;;;;;10.54;100.00;99279.72;5228326;28;20098;-76
2022/12/29 04:39:22;;;;;;;2.22;0.90;;;;;;;10.62;100.00;99278.34;5238518;28;20024;-76
2022/12/29 04:41:52;;;;;;;2.80;1.00;;;;;;;10.59;100.00;99282.91;5224516;28;20037;-76
2022/12/29 04:44:22;;;;;;;1.88;0.80;;;;;;;10.60;100.00;99281.97;5229901;28;20040;-76
2022/12/29 04:46:53;;;;;;;2.30;0.82;;;;;;;10.65;100.00;99283.41;5235297;28;20547;-75
2022/12/29 04:49:23;;;;;;;2.78;0.90;;;;;;;10.62;100.00;99287.94;5224259;28;20052;-75
2022/12/29 04:51:53;;;;;;;2.38;0.75;;;;;;;10.61;100.00;99281.91;5220624;28;20033;-76
2022/12/29 04:54:24;;;;;;;1.92;0.95;;;;;;;10.61;100.00;99287.13;5238543;28;20552;-75
2022/12/29 04:56:54;;;;;;;1.90;0.70;;;;;;;10.72;100.00;99291.75;5223915;28;20123;-76
2022/12/29 04:59:24;;;;;;;1.38;0.70;;;;;;;10.77;100.00;99281.84;5232541;28;20116;-75
2022/12/29 05:01:54;;;;;;;1.40;0.80;;;;;;;10.82;100.00;99285.06;5211091;28;20037;-75
2022/12/29 05:04:25;;;;;;;1.98;0.80;;;;;;;10.86;100.00;99284.78;5223738;28;20128;-75
2022/12/29 05:06:55;;;;;;;2.28;0.95;;;;;;;10.86;100.00;99289.19;5230030;28;20027;-77
2022/12/29 05:09:25;;;;;;;2.35;0.95;;;;;;;10.75;100.00;99287.19;5235982;28;20037;-77
2022/12/29 05:11:56;;;;;;;2.20;1.10;;;;;;;10.84;100.00;99296.28;5230828;28;20021;-76
2022/12/29 05:14:26;;;;;;;3.55;1.52;;;;;;;10.72;100.00;99279.50;5212527;28;20040;-76
2022/12/29 05:16:56;;;;;;;1.70;0.70;;;;;;;10.76;100.00;99280.19;5235517;28;20029;-75
2022/12/29 05:19:27;;;;;;;2.40;0.60;;;;;;;10.73;100.00;99285.59;5242112;28;20238;-76
2022/12/29 05:21:57;;;;;;;1.90;0.68;;;;;;;10.68;100.00;99285.00;5230358;28;20040;-76
2022/12/29 05:24:27;;;;;;;0.93;0.60;;;;;;;10.65;100.00;99293.03;5234969;28;20046;-75
2022/12/29 05:26:57;;;;;;;2.60;0.73;;;;;;;10.62;100.00;99293.16;5239154;28;20063;-77
2022/12/29 05:29:28;;;;;;;2.83;0.80;;;;;;;10.55;100.00;99292.66;5220991;28;20051;-75
2022/12/29 05:31:58;;;;;;;2.55;0.90;;;;;;;10.46;100.00;99301.03;5232052;28;20028;-75
2022/12/29 05:34:28;;;;;;;1.52;0.60;;;;;;;10.49;100.00;99285.19;5240538;28;20043;-76
2022/12/29 05:36:59;;;;;;;1.95;0.60;;;;;;;10.49;100.00;99287.81;5236187;28;20024;-76
2022/12/29 05:39:29;;;;;;;1.63;0.70;;;;;;;10.49;100.00;99281.75;5223600;28;20031;-77
2022/12/29 05:41:59;;;;;;;2.97;0.80;;;;;;;10.53;100.00;99278.03;5215426;28;20531;-75
2022/12/29 05:44:30;;;;;;;2.67;0.77;;;;;;;10.51;100.00;99285.13;5226342;28;20359;-75
2022/12/29 05:47:00;;;;;;;1.00;0.63;;;;;;;10.47;100.00;99283.56;5235110;28;20047;-77
2022/12/29 05:49:31;;;;;;;1.70;0.80;;;;;;;10.53;100.00;99291.09;5239145;28;20043;-76
2022/12/29 05:52:01;;;;;;;2.67;0.90;;;;;;;10.67;100.00;99275.50;5240411;28;20132;-74
2022/12/29 05:54:31;;;;;;;1.00;0.70;;;;;;;10.65;100.00;99287.81;5220238;28;20025;-74
2022/12/29 05:57:01;;;;;;;1.85;0.60;;;;;;;10.67;100.00;99275.50;5236593;28;20024;-75
2022/12/29 05:59:32;;;;;;;2.67;0.90;;;;;;;10.79;100.00;99274.78;5231548;28;20031;-76
2022/12/29 06:02:02;;;;;;;2.42;0.85;;;;;;;10.78;100.00;99268.72;5226016;28;20070;-74
2022/12/29 06:04:32;;;;;;;1.83;0.80;;;;;;;10.83;100.00;99286.75;5222819;28;20024;-75
2022/12/29 06:07:03;;;;;;;1.15;0.60;;;;;;;10.84;100.00;99270.16;5241143;28;20027;-76
2022/12/29 06:09:33;;;;;;;3.20;1.10;;;;;;;10.82;100.00;99277.25;5238586;28;20020;-75
2022/12/29 06:12:04;;;;;;;1.50;0.63;;;;;;;10.82;100.00;99279.84;5230227;28;20032;-76
2022/12/29 06:14:35;;;;;;;3.67;0.80;;;;;;;10.82;100.00;99272.00;5228897;28;20131;-74
2022/12/29 06:17:06;;;;;;;2.75;1.10;;;;;;;10.83;100.00;99266.69;5235517;28;20111;-75
2022/12/29 06:19:36;;;;;;;2.08;0.73;;;;;;;10.90;100.00;99278.47;5240645;28;20421;-77
2022/12/29 06:22:07;;;;;;;0.93;0.38;;;;;;;10.92;100.00;99278.38;5219683;28;20017;-76
2022/12/29 06:24:38;;;;;;;2.10;0.50;;;;;;;10.91;100.00;99274.06;5231711;28;20066;-75
2022/12/29 06:27:08;;;;;;;1.30;0.50;;;;;;;10.91;100.00;99256.63;5231947;28;20035;-75
2022/12/29 06:29:40;;;;;;;5.15;1.63;;;;;;;10.81;100.00;99272.91;5225976;28;20113;-75
2022/12/29 06:32:10;;;;;;;2.60;1.10;;;;;;;10.94;100.00;99279.13;5261061;22;20056;-72
2022/12/29 06:34:41;;;;;;;2.63;1.13;;;;;;;10.89;100.00;99275.94;5222107;28;20032;-73
2022/12/29 06:37:11;;;;;;;3.35;1.08;;;;;;;10.93;100.00;99280.06;5212002;28;20036;-73
2022/12/29 06:39:43;;;;;;;2.92;1.00;;;;;;;10.83;100.00;99268.47;5232468;28;20040;-73
2022/12/29 06:42:13;;;;;;;2.42;1.08;;;;;;;10.94;100.00;99266.91;5229714;28;20500;-74
2022/12/29 06:44:43;;;;;;;1.55;0.50;;;;;;;10.93;100.00;99266.97;5230775;28;20032;-73
2022/12/29 06:47:14;;;;;;;0.82;0.40;;;;;;;10.96;100.00;99261.56;5232749;28;20039;-73
2022/12/29 06:49:44;;;;;;;2.83;0.70;;;;;;;11.01;100.00;99254.31;5241497;28;20037;-73
2022/12/29 06:52:14;;;;;;;2.55;1.27;;;;;;;11.02;100.00;99266.47;5241304;28;20028;-73
2022/12/29 06:54:45;;;;;;;1.35;0.50;;;;;;;11.06;100.00;99259.19;5230205;28;20028;-73
2022/12/29 06:57:15;;;;;;;1.83;0.70;;;;;;;11.21;100.00;99252.22;5238387;28;20036;-73
2022/12/29 06:59:45;;;;;;;1.15;0.43;;;;;;;11.26;100.00;99274.53;5214323;28;20075;-73
2022/12/29 07:02:18;;;;;;;1.83;0.73;;;;;;;11.30;100.00;99268.19;5229515;28;20037;-73
2022/12/29 07:04:48;;;;;;;1.67;0.60;;;;;;;11.30;100.00;99272.59;5226546;28;20037;-73
2022/12/29 07:07:19;;;;;;;1.35;0.50;;;;;;;11.35;100.00;99268.78;5226687;28;20166;-73
2022/12/29 07:09:50;;;;;;;2.53;0.93;;;;;;;11.27;100.00;99260.53;5228659;28;20061;-74
2022/12/29 07:12:20;;;;;;;1.63;0.50;;;;;;;11.28;100.00;99257.00;5227736;28;20313;-73
2022/12/29 07:14:50;;;;;;;1.08;0.40;;;;;;;11.36;100.00;99254.78;5235529;28;20057;-73
2022/12/29 07:17:20;;;;;;;1.25;0.47;;;;;;;11.34;100.00;99238.34;5234182;28;20028;-73
2022/12/29 07:19:51;;;;;;;1.50;0.43;;;;;;;11.45;100.00;99241.13;5241103;28;20425;-72
2022/12/29 07:22:21;;;;;;;0.55;0.30;;;;;;;11.48;100.00;99246.16;5228593;28;20028;-72
2022/12/29 07:24:51;;;;;;;1.73;0.30;;;;;;;11.38;100.00;99265.13;5244989;28;20032;-72
2022/12/29 07:27:22;;;;;;;2.03;0.90;;;;;;;11.31;100.00;99264.63;5231581;28;20021;-72
2022/12/29 07:29:52;;;;;;;1.90;0.75;;;;;;;11.45;100.00;99261.22;5224812;28;20728;-73
2022/12/29 07:32:22;;;;;;;1.95;0.68;;;;;;;11.50;100.00;99264.41;5236946;28;20085;-74
2022/12/29 07:34:52;;;;;;;2.83;1.10;;;;;;;11.49;100.00;99263.56;5243742;28;20032;-74
2022/12/29 07:37:23;;;;;;;1.50;0.60;;;;;;;11.50;100.00;99267.00;5245071;28;20039;-72
2022/12/29 07:39:53;;;;;;;2.75;0.60;;;;;;;11.55;100.00;99262.34;5239460;28;20032;-72
2022/12/29 07:42:23;;;;;;;2.55;0.80;;;;;;;11.51;100.00;99250.38;5235960;28;20055;-73
2022/12/29 07:44:54;;;;;;;0.95;0.38;;;;;;;11.38;100.00;99252.91;5234373;28;20119;-72
2022/12/29 07:47:24;;;;;;;1.20;0.47;;;;;;;11.31;100.00;99254.19;5230938;28;20036;-72
2022/12/29 07:49:54;;;;;;;0.77;0.35;;;;;;;11.42;100.00;99257.00;5225840;28;20469;-73
2022/12/29 07:52:24;;;;;;;1.15;0.43;;;;;;;11.56;100.00;99264.06;5226451;28;20036;-72
2022/12/29 07:54:55;;;;;;;2.25;0.70;;;;;;;11.81;100.00;99270.31;5224049;28;20139;-73
2022/12/29 07:57:25;;;;;;;2.28;0.90;;;;;;;12.11;98.37;99265.00;5223584;28;20025;-73
2022/12/29 07:59:55;;;;;;;3.65;0.98;;;;;;;12.66;95.67;99271.84;5229431;28;20060;-72
2022/12/29 08:02:26;;;;;;;1.70;0.63;;;;;;;13.18;92.92;99270.13;5225773;28;20028;-72
2022/12/29 08:04:56;;;;;;;2.13;0.77;;;;;;;13.15;91.50;99270.34;5225959;28;20489;-73
2022/12/29 08:07:27;;;;;;;1.70;0.90;;;;;;;12.71;93.54;99280.28;5223852;28;20112;-73
2022/12/29 08:09:57;;;;;;;2.55;0.98;;;;;;;12.73;94.32;99278.38;5227215;28;20025;-73
2022/12/29 08:12:28;;;;;;;1.60;0.80;;;;;;;13.28;91.03;99286.94;5222862;28;20029;-73
2022/12/29 08:14:58;;;;;;;2.80;1.00;;;;;;;13.80;89.20;99290.34;5229648;28;20025;-73
2022/12/29 08:17:28;;;;;;;2.08;0.63;;;;;;;13.81;88.79;99294.63;5226689;28;20228;-73
2022/12/29 08:19:58;;;;;;;1.23;0.68;;;;;;;13.41;90.42;99299.13;5231138;28;20384;-73
2022/12/29 08:22:29;;;;;;;1.45;0.88;;;;;;;13.19;92.46;99313.78;5243542;28;20028;-73
2022/12/29 08:24:59;;;;;;;2.45;0.70;;;;;;;13.38;91.66;99303.78;5243627;28;21067;-72
2022/12/29 08:27:29;;;;;;;3.03;0.90;;;;;;;13.09;92.36;99312.72;5243909;28;20676;-73
2022/12/29 08:30:00;;;;;;;1.10;0.63;;;;;;;12.79;94.15;99312.06;5228060;28;20035;-73
2022/12/29 08:32:30;;;;;;;1.27;0.50;;;;;;;12.57;95.71;99317.00;5232057;28;20664;-74
2022/12/29 08:35:01;;;;;;;0.77;0.40;;;;;;;12.47;96.99;99323.75;5220634;28;20056;-74
2022/12/29 08:37:32;;;;;;;0.85;0.32;;;;;;;12.25;98.38;99319.94;5228881;28;20512;-73
2022/12/29 08:40:04;;;;;;;0.20;0.20;;;;;;;12.24;98.21;99334.84;5235850;28;20021;-73
2022/12/29 08:42:34;;;;;;;0.75;0.40;;;;;;;12.06;99.56;99325.50;5230123;28;20074;-73
2022/12/29 08:45:05;;;;;;;1.48;0.40;;;;;;;12.02;100.00;99333.63;5228784;28;20016;-74
2022/12/29 08:47:36;;;;;;;0.63;0.30;;;;;;;11.89;100.00;99323.06;5239993;28;20419;-73
2022/12/29 08:50:07;;;;;;;1.33;0.40;;;;;;;11.83;100.00;99323.44;5235027;28;20033;-73
2022/12/29 08:52:37;;;;;;;0.77;0.35;;;;;;;11.77;100.00;99310.72;5242928;28;20482;-73
2022/12/29 08:55:08;;;;;;;1.00;0.25;;;;;;;11.86;100.00;99318.03;5242422;28;20112;-74
2022/12/29 08:57:38;;;;;;;2.15;0.40;;;;;;;11.79;100.00;99316.69;5236789;28;20043;-74
2022/12/29 09:00:09;;;;;;;1.35;0.50;;;;;;;11.77;100.00;99302.84;5229632;28;20058;-73
2022/12/29 09:02:39;;;;;;;1.48;0.40;;;;;;;11.87;100.00;99298.75;5237830;28;20027;-73
2022/12/29 09:05:09;;;;;;;1.00;0.40;;;;;;;11.85;100.00;99303.25;5242695;28;20040;-72
2022/12/29 09:07:40;;;;;;;0.40;0.30;;;;;;;11.93;100.00;99295.75;5234299;28;20068;-73
2022/12/29 09:10:10;;;;;;;0.88;0.40;;;;;;;11.98;100.00;99303.34;5226531;28;20095;-73
2022/12/29 09:12:40;;;;;;;1.52;0.45;;;;;;;11.83;100.00;99328.69;5227657;28;20029;-73
2022/12/29 09:15:11;;;;;;;1.42;0.38;;;;;;;11.85;100.00;99318.97;5225616;28;20032;-73
2022/12/29 09:17:43;;;;;;;3.45;0.52;;;;;;;11.95;100.00;99317.44;5231229;28;20111;-73
2022/12/29 09:20:18;;;;;;;0.77;0.43;;;;;;;11.88;100.00;99321.38;5213986;28;20149;-73
2022/12/29 09:22:49;;;;;;;;;;;;;;;11.80;100.00;99317.53;5240036;28;20058;-73
2022/12/29 09:25:19;;;;;;;1.98;0.45;;;;;;;11.75;100.00;99323.06;5233507;28;20578;-74
2022/12/29 09:27:53;;;;;;;1.08;0.45;;;;;;;11.71;100.00;99305.00;5221168;28;20036;-74
2022/12/29 09:30:23;;;;;;;2.45;0.40;;;;;;;11.69;100.00;99333.91;5222707;28;20035;-73
2022/12/29 09:32:54;;;;;;;1.75;0.55;;;;;;;11.62;100.00;99329.13;5231443;28;20028;-73
2022/12/29 09:35:24;;;;;;;1.58;0.60;;;;;;;11.61;100.00;99333.50;5231903;28;20039;-73
2022/12/29 09:37:54;;;;;;;2.28;0.90;;;;;;;11.63;100.00;99352.56;5235526;28;20501;-73
2022/12/29 09:40:29;;;;;;;1.13;0.50;;;;;;;11.59;100.00;99360.72;5237656;28;20028;-72
2022/12/29 09:43:09;;;;;;;2.67;0.90;;;;;;;11.58;100.00;99367.69;5223648;28;20481;-72
2022/12/29 09:45:44;;;;;;;0.93;0.50;;;;;;;11.52;100.00;99372.41;5232474;28;20051;-72
2022/12/29 09:48:19;;;;;;;2.72;1.38;;;;;;;11.54;100.00;99375.78;5231774;28;20078;-72
2022/12/29 09:50:55;;;;;;;3.20;1.52;;;;;;;11.47;100.00;99371.84;5232534;28;20036;-71
2022/12/29 09:53:29;;;;;;;;;;;;;;;11.44;100.00;99375.47;5237340;28;20027;-72
2022/12/29 09:56:01;;;;;;;6.40;2.22;;;;;;;11.43;100.00;99372.97;5233534;28;19916;-73
2022/12/29 09:58:40;;;;;;;4.07;1.50;;;;;;;11.40;100.00;99358.28;5233650;28;20657;-72
2022/12/29 10:01:28;;;;;;;1.45;0.75;;;;;;;11.41;100.00;99364.38;5227775;28;20039;-72
2022/12/29 10:04:02;;;;;;;1.55;0.70;;;;;;;11.56;100.00;99372.19;5232810;28;20028;-72
2022/12/29 10:06:44;;;;;;;4.07;0.60;;;;;;;11.58;100.00;99372.09;5238298;28;20024;-72
2022/12/29 10:09:52;;;;;;;1.02;0.55;;;;;;;11.43;100.00;99373.78;5220452;28;20033;-72
2022/12/29 10:12:32;;;;;;;0.60;0.32;;;;;;;11.46;100.00;99373.59;5202171;28;20074;-72
2022/12/29 10:15:30;;;;;;;1.00;0.47;;;;;;;11.46;100.00;99371.00;5224115;28;20069;-72
2022/12/29 10:18:19;;;;;;;0.73;0.47;;;;;;;11.51;100.00;99375.97;5221984;28;20043;-73
2022/12/29 10:21:05;;;;;;;1.85;0.50;;;;;;;11.47;100.00;99369.22;5226407;28;20473;-73
2022/12/29 10:23:42;;;;;;;1.48;0.50;;;;;;;11.49;100.00;99372.59;5238001;28;20889;-72
2022/12/29 10:26:20;;;;;;;2.35;0.50;;;;;;;11.60;100.00;99370.25;5229472;28;20035;-72
2022/12/29 10:28:56;;;;;;;0.95;0.40;;;;;;;11.50;100.00;99369.91;5227746;28;20040;-72
2022/12/29 10:31:42;;;;;;;2.40;0.43;;;;;;;11.52;100.00;99373.28;5227649;28;20445;-73
2022/12/29 10:34:18;;;;;;;1.23;0.50;;;;;;;11.62;100.00;99369.19;5234321;28;20025;-72
2022/12/29 10:36:55;;;;;;;1.23;0.40;;;;;;;11.87;100.00;99374.69;5227011;28;20043;-72
2022/12/29 10:39:31;;;;;;;1.70;0.30;;;;;;;11.97;99.56;99378.41;5231540;28;20071;-73
2022/12/29 10:42:07;;;;;;;;;;;;;;;12.25;99.51;99369.72;5235666;28;20565;-73
2022/12/29 10:44:38;;;;;;;0.47;0.28;;;;;;;12.43;98.59;99372.06;5233880;28;20618;-73
2022/12/29 10:47:21;;;;;;;0.77;0.30;;;;;;;12.42;97.84;99367.75;5220955;28;20037;-74
2022/12/29 10:49:52;;;;;;;0.60;0.30;;;;;;;12.48;97.07;99361.28;5206614;28;20077;-73
2022/12/29 10:52:23;;;;;;;0.60;0.30;;;;;;;12.50;97.58;99360.25;5228945;28;20028;-73
2022/12/29 10:55:02;;;;;;;0.75;0.28;;;;;;;12.24;97.27;99363.66;5227347;28;20508;-74
2022/12/29 10:57:43;;;;;;;1.00;0.20;;;;;;;12.23;98.64;99372.44;5230929;28;20044;-73
2022/12/29 11:00:16;;;;;;;0.20;0.20;;;;;;;12.16;98.42;99375.53;5226688;28;20098;-73
2022/12/29 11:02:57;;;;;;;1.02;0.30;;;;;;;12.32;98.60;99371.88;5236223;28;20135;-73
2022/12/29 11:05:45;;;;;;;0.75;0.30;;;;;;;12.26;97.85;99374.88;5231421;28;20707;-74
2022/12/29 11:08:19;;;;;;;2.50;0.47;;;;;;;12.32;96.22;99369.25;5233710;28;20024;-73
2022/12/29 11:11:00;;;;;;;3.63;0.50;;;;;;;12.51;97.79;99361.94;5239446;28;20399;-74
2022/12/29 11:13:34;;;;;;;1.60;0.60;;;;;;;12.44;96.26;99352.78;5228223;28;20567;-74
2022/12/29 11:16:04;;;;;;;1.60;0.60;;;;;;;12.24;94.62;99353.16;5239503;28;20020;-73
2022/12/29 11:18:39;;;;;;;2.15;0.55;;;;;;;12.21;95.65;99353.38;5242941;28;20643;-72
2022/12/29 11:21:33;;;;;;;0.68;0.30;;;;;;;12.19;96.33;99355.25;5236916;28;20031;-73
2022/12/29 11:24:18;;;;;;;1.80;0.73;;;;;;;12.29;96.11;99358.13;5232738;28;20060;-73
2022/12/29 11:26:57;;;;;;;3.13;0.90;;;;;;;12.45;95.56;99351.84;5238380;28;20512;-74
2022/12/29 11:29:38;;;;;;;2.42;0.88;;;;;;;12.53;94.79;99365.31;5231508;28;20067;-73
2022/12/29 11:32:26;;;;;;;1.65;0.50;;;;;;;12.54;94.42;99361.75;5219330;28;20545;-73
2022/12/29 11:34:58;;;;;;;3.55;0.93;;;;;;;12.54;92.46;99364.38;5236369;28;20047;-73
2022/12/29 11:37:40;;;;;;;2.03;0.68;;;;;;;12.51;91.73;99359.31;5218703;28;20117;-71
2022/12/29 11:40:19;;;;;;;3.08;0.90;;;;;;;12.40;92.49;99367.00;5230964;28;20043;-72
2022/12/29 11:42:53;;;;;;;2.55;0.90;;;;;;;12.38;92.38;99361.03;5204253;28;20864;-72
2022/12/29 11:45:27;;;;;;;3.92;1.20;;;;;;;12.25;91.17;99360.09;5236544;28;20048;-70
2022/12/29 11:48:05;;;;;;;3.97;1.10;;;;;;;12.10;91.42;99366.25;5219957;28;20696;-72
2022/12/29 11:50:40;;;;;;;2.03;0.52;;;;;;;12.04;91.90;99365.78;5231778;28;20059;-72
2022/12/29 11:53:20;;;;;;;4.28;0.90;;;;;;;11.95;94.02;99382.91;5229703;28;20028;-73
2022/12/29 11:56:01;;;;;;;2.00;0.85;;;;;;;11.85;96.22;99384.41;5238196;28;20072;-72
2022/12/29 11:58:37;;;;;;;2.63;1.10;;;;;;;11.73;97.76;99395.59;5218162;28;20028;-71
2022/12/29 12:01:19;;;;;;;4.15;1.50;;;;;;;11.72;99.66;99393.91;5226647;28;20497;-72
2022/12/29 12:04:02;;;;;;;2.70;1.10;;;;;;;11.61;100.00;99398.91;5225747;28;20044;-72
2022/12/29 12:06:45;;;;;;;2.97;1.20;;;;;;;11.59;99.71;99398.16;5224185;28;20040;-73
2022/12/29 12:09:25;;;;;;;3.53;1.30;;;;;;;11.51;100.00;99412.59;5219940;28;20029;-72
2022/12/29 12:11:59;;;;;;;3.97;1.20;;;;;;;11.44;99.68;99412.09;5203214;28;20045;-71
2022/12/29 12:14:43;;;;;;;3.65;1.27;;;;;;;11.42;100.00;99421.00;5224984;28;20035;-74
2022/12/29 12:17:23;;;;;;;3.58;1.20;;;;;;;11.33;99.76;99422.34;5218312;28;20079;-71
2022/12/29 12:20:01;;;;;;;5.50;1.45;;;;;;;11.33;99.75;99439.81;5197387;28;20052;-72
2022/12/29 12:22:42;;;;;;;3.10;1.40;;;;;;;11.29;99.40;99438.31;5217691;28;20087;-72
2022/12/29 12:25:17;;;;;;;4.65;1.08;;;;;;;11.24;99.00;99430.72;5216904;28;20068;-73
2022/12/29 12:28:05;;;;;;;2.75;0.85;;;;;;;11.21;99.92;99425.66;5221767;28;20079;-71
2022/12/29 12:30:48;;;;;;;3.90;0.85;;;;;;;11.12;98.65;99428.78;5221401;28;20486;-72
2022/12/29 12:33:33;;;;;;;6.75;1.20;;;;;;;11.18;97.95;99420.59;5234268;22;20045;-76
2022/12/29 12:36:21;;;;;;;3.63;1.00;;;;;;;11.28;96.39;99419.13;5227436;28;20090;-78